createdAt,value
2022-11-11T00:00:33.893Z,83.66
2022-11-11T00:03:24.864Z,83.86
2022-11-11T00:09:11.281Z,83.48
2022-11-11T00:11:57.707Z,83.11
2022-11-11T00:14:44.215Z,83.19
2022-11-11T00:17:48.977Z,83.14
2022-11-11T00:20:55.003Z,83.12
2022-11-11T00:24:00.152Z,82.90
2022-11-11T00:26:46.666Z,82.88
2022-11-11T00:29:32.887Z,83.15
2022-11-11T00:32:27.344Z,83.04
2022-11-11T00:35:32.545Z,83.13
2022-11-11T00:38:38.211Z,83.01
2022-11-11T00:41:27.300Z,82.78
2022-11-11T00:44:13.518Z,82.90
2022-11-11T00:47:18.691Z,82.47
2022-11-11T00:50:26.228Z,82.93
2022-11-11T00:53:19.341Z,83.02
2022-11-11T00:56:07.778Z,82.71
2022-11-11T00:58:54.280Z,82.78
2022-11-11T01:01:40.591Z,82.83
2022-11-11T01:04:26.709Z,82.80
2022-11-11T01:07:13.085Z,82.88
2022-11-11T01:09:59.249Z,82.89
2022-11-11T01:12:45.531Z,83.13
2022-11-11T01:15:33.783Z,83.06
2022-11-11T01:18:23.695Z,82.67
2022-11-11T01:21:24.622Z,82.68
2022-11-11T01:24:11.439Z,83.01
2022-11-11T01:26:57.878Z,82.94
2022-11-11T01:29:44.017Z,83.19
2022-11-11T01:32:30.446Z,83.02
2022-11-11T01:35:16.462Z,83.17
2022-11-11T01:38:02.643Z,83.27
2022-11-11T01:40:50.287Z,83.50
2022-11-11T01:43:36.828Z,83.44
2022-11-11T01:46:31.919Z,82.90
2022-11-11T01:49:59.051Z,83.05
2022-11-11T01:52:45.912Z,83.61
2022-11-11T01:55:32.736Z,83.55
2022-11-11T01:58:21.042Z,83.79
2022-11-11T02:01:08.089Z,83.64
2022-11-11T02:04:15.957Z,83.52
2022-11-11T02:07:07.189Z,84.02
2022-11-11T02:09:54.699Z,83.92
2022-11-11T02:13:00.002Z,84.18
2022-11-11T02:15:46.272Z,84.38
2022-11-11T02:18:33.364Z,84.35
2022-11-11T02:21:52.064Z,84.16
2022-11-11T02:24:39.435Z,84.33
2022-11-11T02:27:27.874Z,84.61
2022-11-11T02:30:17.072Z,84.69
2022-11-11T02:33:03.499Z,84.71
2022-11-11T02:35:59.138Z,84.41
2022-11-11T02:38:45.808Z,84.51
2022-11-11T02:41:50.977Z,84.58
2022-11-11T02:44:40.585Z,85.03
2022-11-11T02:47:27.435Z,84.78
2022-11-11T02:50:13.767Z,84.53
2022-11-11T02:52:59.925Z,84.31
2022-11-11T02:55:46.496Z,84.44
2022-11-11T02:58:33.428Z,83.81
2022-11-11T03:01:23.843Z,84.39
2022-11-11T03:04:10.058Z,84.03
2022-11-11T03:06:56.124Z,84.00
2022-11-11T03:09:42.247Z,84.09
2022-11-11T03:12:28.524Z,84.22
2022-11-11T03:15:14.720Z,84.39
2022-11-11T03:18:00.845Z,84.18
2022-11-11T03:21:38.146Z,84.16
2022-11-11T03:24:11.660Z,84.65
2022-11-11T03:26:58.117Z,84.20
2022-11-11T03:29:44.385Z,84.19
2022-11-11T03:32:30.263Z,84.33
2022-11-11T03:35:16.634Z,84.31
2022-11-11T03:38:16.555Z,84.36
2022-11-11T03:41:02.414Z,84.52
2022-11-11T03:43:48.652Z,84.44
2022-11-11T03:46:34.998Z,84.55
2022-11-11T03:49:21.332Z,84.48
2022-11-11T03:52:07.886Z,84.67
2022-11-11T03:54:54.079Z,84.33
2022-11-11T03:57:45.461Z,84.21
2022-11-11T04:00:31.940Z,84.28
2022-11-11T04:03:38.191Z,84.50
2022-11-11T04:06:43.336Z,84.16
2022-11-11T04:09:48.335Z,84.25
2022-11-11T04:12:56.413Z,84.22
2022-11-11T04:16:00.876Z,84.33
2022-11-11T04:19:05.877Z,84.02
2022-11-11T04:21:51.647Z,84.04
2022-11-11T04:24:56.702Z,84.01
2022-11-11T04:27:42.801Z,83.98
2022-11-11T04:30:29.035Z,83.74
2022-11-11T04:33:14.859Z,84.09
2022-11-11T04:36:00.776Z,83.75
2022-11-11T04:39:05.363Z,83.91
2022-11-11T04:42:07.534Z,83.92
2022-11-11T04:45:13.314Z,83.93
2022-11-11T04:48:06.597Z,83.47
2022-11-11T04:50:52.612Z,83.70
2022-11-11T04:53:38.860Z,83.58
2022-11-11T04:56:43.741Z,83.75
2022-11-11T04:59:30.063Z,83.70
2022-11-11T05:02:34.962Z,83.57
2022-11-11T05:05:21.884Z,83.32
2022-11-11T05:08:27.284Z,83.04
2022-11-11T05:11:14.645Z,83.11
2022-11-11T05:14:21.128Z,83.13
2022-11-11T05:17:28.205Z,83.12
2022-11-11T05:20:38.566Z,83.07
2022-11-11T05:23:45.383Z,83.15
2022-11-11T05:26:32.381Z,82.97
2022-11-11T05:29:18.294Z,83.22
2022-11-11T05:32:05.612Z,83.18
2022-11-11T05:34:52.088Z,83.13
2022-11-11T05:37:38.082Z,83.19
2022-11-11T05:40:24.366Z,83.31
2022-11-11T05:43:10.355Z,82.96
2022-11-11T05:45:56.468Z,83.26
2022-11-11T05:49:02.335Z,83.12
2022-11-11T05:51:48.239Z,83.05
2022-11-11T05:54:34.153Z,82.91
2022-11-11T05:57:20.455Z,82.36
2022-11-11T06:00:06.850Z,82.44
2022-11-11T06:02:53.103Z,82.35
2022-11-11T06:05:39.415Z,82.75
2022-11-11T06:08:25.485Z,82.60
2022-11-11T06:11:11.458Z,82.44
2022-11-11T06:13:58.128Z,82.21
2022-11-11T06:16:43.940Z,82.14
2022-11-11T06:19:30.046Z,82.08
2022-11-11T06:22:35.964Z,81.65
2022-11-11T06:25:45.278Z,82.09
2022-11-11T06:28:31.254Z,82.10
2022-11-11T06:31:26.205Z,81.80
2022-11-11T06:34:12.869Z,82.07
2022-11-11T06:36:58.885Z,82.11
2022-11-11T06:39:44.848Z,82.15
2022-11-11T06:42:37.028Z,82.26
2022-11-11T06:45:24.172Z,82.03
2022-11-11T06:48:10.515Z,81.95
2022-11-11T06:51:03.959Z,81.95
2022-11-11T06:53:50.112Z,82.32
2022-11-11T06:56:35.928Z,81.87
2022-11-11T06:59:22.156Z,81.47
2022-11-11T07:02:13.496Z,81.57
2022-11-11T07:05:00.622Z,81.33
2022-11-11T07:07:46.591Z,81.33
2022-11-11T07:10:34.482Z,80.90
2022-11-11T07:13:20.945Z,80.96
2022-11-11T07:16:07.556Z,80.96
2022-11-11T07:18:53.533Z,81.07
2022-11-11T07:21:40.098Z,80.96
2022-11-11T07:24:26.518Z,80.78
2022-11-11T07:27:12.863Z,80.55
2022-11-11T07:29:58.669Z,80.60
2022-11-11T07:32:46.905Z,79.87
2022-11-11T07:35:33.280Z,79.86
2022-11-11T07:38:19.558Z,79.99
2022-11-11T07:41:05.832Z,80.44
2022-11-11T07:43:51.901Z,80.55
2022-11-11T07:46:38.044Z,80.59
2022-11-11T07:49:24.182Z,80.68
2022-11-11T07:52:10.318Z,80.41
2022-11-11T07:54:56.682Z,80.49
2022-11-11T07:57:42.931Z,80.25
2022-11-11T08:00:29.070Z,80.10
2022-11-11T08:03:14.936Z,79.93
2022-11-11T08:06:03.234Z,79.82
2022-11-11T08:08:49.966Z,80.19
2022-11-11T08:12:08.497Z,80.09
2022-11-11T08:14:54.680Z,80.65
2022-11-11T08:17:41.192Z,80.63
2022-11-11T08:20:27.458Z,80.28
2022-11-11T08:26:28.850Z,79.80
2022-11-11T08:29:16.013Z,79.81
2022-11-11T08:32:02.232Z,79.71
2022-11-11T08:34:48.599Z,79.50
2022-11-11T08:37:35.233Z,79.25
2022-11-11T08:40:22.200Z,79.24
2022-11-11T08:43:08.261Z,79.42
2022-11-11T08:45:54.573Z,78.28
2022-11-11T08:48:40.786Z,78.42
2022-11-11T08:51:26.896Z,77.80
2022-11-11T08:54:12.942Z,77.74
2022-11-11T08:56:59.224Z,77.30
2022-11-11T08:59:45.634Z,77.32
2022-11-11T09:02:31.822Z,77.35
2022-11-11T09:05:18.569Z,76.40
2022-11-11T09:08:07.395Z,76.60
2022-11-11T09:10:53.434Z,75.75
2022-11-11T09:13:40.664Z,75.49
2022-11-11T09:16:26.801Z,75.28
2022-11-11T09:19:13.074Z,75.25
2022-11-11T09:21:59.350Z,75.24
2022-11-11T09:24:45.456Z,74.81
2022-11-11T09:27:31.249Z,74.73
2022-11-11T09:30:17.340Z,74.35
2022-11-11T09:33:04.935Z,74.09
2022-11-11T09:35:50.924Z,73.88
2022-11-11T09:38:37.334Z,73.59
2022-11-11T09:42:07.265Z,73.16
2022-11-11T09:45:05.742Z,72.18
2022-11-11T09:47:54.298Z,73.49
2022-11-11T09:50:54.444Z,72.86
2022-11-11T09:53:49.159Z,73.39
2022-11-11T09:56:38.478Z,72.68
2022-11-11T09:59:32.432Z,73.16
2022-11-11T10:02:29.774Z,73.07
2022-11-11T10:05:22.224Z,72.51
2022-11-11T10:08:13.505Z,72.15
2022-11-11T10:11:01.289Z,72.41
2022-11-11T10:13:47.679Z,72.01
2022-11-11T10:16:48.509Z,70.93
2022-11-11T10:20:01.736Z,71.01
2022-11-11T10:22:53.553Z,70.77
2022-11-11T10:25:47.271Z,70.19
2022-11-11T10:28:39.372Z,69.85
2022-11-11T10:31:26.204Z,68.07
2022-11-11T10:34:16.527Z,66.83
2022-11-11T10:37:03.588Z,65.17
2022-11-11T10:40:08.140Z,61.97
2022-11-11T10:42:54.472Z,63.31
2022-11-11T10:45:49.742Z,61.57
2022-11-11T10:48:53.918Z,61.03
2022-11-11T10:52:07.982Z,60.43
2022-11-11T10:55:09.989Z,61.10
2022-11-11T10:58:02.304Z,60.21
2022-11-11T11:00:51.608Z,60.32
2022-11-11T11:03:43.068Z,60.86
2022-11-11T11:06:34.795Z,61.23
2022-11-11T11:09:29.747Z,59.96
2022-11-11T11:12:40.425Z,58.64
2022-11-11T11:15:30.031Z,58.79
2022-11-11T11:18:18.692Z,60.04
2022-11-11T11:21:07.191Z,61.55
2022-11-11T11:23:53.011Z,62.40
2022-11-11T11:26:47.282Z,63.10
2022-11-11T11:29:39.747Z,63.58
2022-11-11T11:32:31.718Z,64.37
2022-11-11T11:35:38.157Z,62.96
2022-11-11T11:38:42.159Z,63.72
2022-11-11T11:41:42.675Z,63.62
2022-11-11T11:44:28.667Z,64.35
2022-11-11T11:47:25.761Z,64.29
2022-11-11T11:50:27.080Z,63.91
2022-11-11T11:53:39.159Z,63.72
2022-11-11T11:56:42.003Z,63.93
2022-11-11T11:59:46.859Z,64.72
2022-11-11T12:02:58.216Z,65.39
2022-11-11T12:05:50.718Z,66.80
2022-11-11T12:08:58.430Z,67.39
2022-11-11T12:12:07.154Z,68.06
2022-11-11T12:15:11.216Z,68.63
2022-11-11T12:18:16.858Z,69.02
2022-11-11T12:21:17.202Z,69.36
2022-11-11T12:24:40.159Z,69.91
2022-11-11T12:27:44.780Z,70.36
2022-11-11T12:30:33.812Z,70.79
2022-11-11T12:33:34.567Z,71.11
2022-11-11T12:36:20.145Z,71.46
2022-11-11T12:39:44.234Z,71.62
2022-11-11T12:43:06.956Z,71.91
2022-11-11T12:46:16.368Z,71.94
2022-11-11T12:49:20.675Z,72.25
2022-11-11T12:52:38.305Z,72.07
2022-11-11T12:56:28.158Z,72.61
2022-11-11T12:59:35.886Z,73.09
2022-11-11T13:02:30.679Z,73.44
2022-11-11T13:05:47.436Z,73.41
2022-11-11T13:08:52.646Z,73.16
2022-11-11T13:11:56.629Z,73.58
2022-11-11T13:15:04.117Z,73.02
2022-11-11T13:17:51.428Z,73.65
2022-11-11T13:20:40.155Z,73.68
2022-11-11T13:23:26.950Z,73.67
2022-11-11T13:26:44.294Z,73.44
2022-11-11T13:29:39.201Z,74.02
2022-11-11T13:32:32.322Z,74.27
2022-11-11T13:35:21.875Z,74.43
2022-11-11T13:38:24.617Z,74.44
2022-11-11T13:41:11.583Z,74.79
2022-11-11T13:44:01.491Z,74.97
2022-11-11T13:46:50.056Z,75.03
2022-11-11T13:49:54.379Z,74.78
2022-11-11T13:53:06.949Z,74.93
2022-11-11T13:56:00.733Z,74.90
2022-11-11T13:58:49.725Z,75.15
2022-11-11T14:01:42.299Z,75.07
2022-11-11T14:04:29.039Z,75.08
2022-11-11T14:07:44.403Z,74.47
2022-11-11T14:10:36.516Z,74.09
2022-11-11T14:13:24.004Z,73.98
2022-11-11T14:16:12.261Z,73.25
2022-11-11T14:18:58.440Z,73.43
2022-11-11T14:21:48.152Z,72.85
2022-11-11T14:24:38.786Z,73.27
2022-11-11T14:27:31.041Z,73.60
2022-11-11T14:30:32.607Z,73.76
2022-11-11T14:33:55.566Z,74.29
2022-11-11T14:36:57.647Z,74.17
2022-11-11T14:39:55.751Z,74.68
2022-11-11T14:42:44.812Z,74.98
2022-11-11T14:45:32.623Z,75.05
2022-11-11T14:48:47.016Z,74.89
2022-11-11T14:51:39.154Z,74.67
2022-11-11T14:54:33.797Z,75.02
2022-11-11T14:57:24.637Z,75.45
2022-11-11T15:00:16.554Z,75.25
2022-11-11T15:03:20.972Z,75.62
2022-11-11T15:06:28.524Z,75.58
2022-11-11T15:09:35.525Z,75.92
2022-11-11T15:12:49.837Z,76.03
2022-11-11T15:15:55.499Z,76.36
2022-11-11T15:18:44.351Z,76.47
2022-11-11T15:21:36.541Z,76.72
2022-11-11T15:24:36.068Z,76.45
2022-11-11T15:27:45.553Z,76.17
2022-11-11T15:30:56.253Z,76.43
2022-11-11T15:34:13.110Z,76.70
2022-11-11T15:37:03.929Z,76.70
2022-11-11T15:39:52.888Z,76.86
2022-11-11T15:42:46.190Z,76.99
2022-11-11T15:45:35.978Z,77.23
2022-11-11T15:48:26.419Z,77.56
2022-11-11T15:51:30.210Z,77.36
2022-11-11T15:54:16.838Z,77.50
2022-11-11T15:57:30.599Z,77.41
2022-11-11T16:00:25.624Z,77.93
2022-11-11T16:03:41.771Z,77.71
2022-11-11T16:06:28.215Z,77.98
2022-11-11T16:09:19.070Z,78.17
2022-11-11T16:12:05.613Z,78.26
2022-11-11T16:14:55.476Z,78.46
2022-11-11T16:17:42.917Z,78.28
2022-11-11T16:20:38.500Z,78.56
2022-11-11T16:23:26.448Z,78.70
2022-11-11T16:26:22.164Z,78.76
2022-11-11T16:29:15.713Z,78.91
2022-11-11T16:32:03.716Z,78.97
2022-11-11T16:34:50.786Z,79.15
2022-11-11T16:37:52.336Z,79.30
2022-11-11T16:40:43.674Z,79.41
2022-11-11T16:43:34.775Z,79.52
2022-11-11T16:46:36.352Z,79.51
2022-11-11T16:49:28.136Z,79.82
2022-11-11T16:52:21.219Z,79.67
2022-11-11T16:55:10.477Z,79.58
2022-11-11T16:58:03.682Z,79.77
2022-11-11T17:00:58.834Z,79.54
2022-11-11T17:03:59.485Z,79.40
2022-11-11T17:06:47.381Z,79.67
2022-11-11T17:09:41.423Z,79.72
2022-11-11T17:12:31.786Z,79.60
2022-11-11T17:15:20.590Z,79.96
2022-11-11T17:18:09.028Z,80.18
2022-11-11T17:20:56.928Z,80.35
2022-11-11T17:23:43.109Z,80.96
2022-11-11T17:26:29.298Z,81.31
2022-11-11T17:29:15.893Z,81.62
2022-11-11T17:32:02.276Z,80.98
2022-11-11T17:34:48.432Z,81.21
2022-11-11T17:37:38.238Z,81.62
2022-11-11T17:40:24.548Z,81.92
2022-11-11T17:43:10.942Z,81.95
2022-11-11T17:46:01.186Z,81.85
2022-11-11T17:48:47.600Z,81.59
2022-11-11T17:51:33.846Z,81.62
2022-11-11T17:54:20.233Z,81.99
2022-11-11T17:57:06.576Z,81.38
2022-11-11T17:59:52.774Z,81.35
2022-11-11T18:02:38.964Z,81.68
2022-11-11T18:05:25.102Z,81.20
2022-11-11T18:08:11.347Z,81.14
2022-11-11T18:11:06.270Z,81.67
2022-11-11T18:13:53.049Z,81.61
2022-11-11T18:16:38.917Z,81.31
2022-11-11T18:19:25.337Z,81.62
2022-11-11T18:22:11.469Z,81.28
2022-11-11T18:24:57.904Z,81.71
2022-11-11T18:27:45.683Z,81.65
2022-11-11T18:30:31.723Z,81.14
2022-11-11T18:33:18.670Z,81.52
2022-11-11T18:36:08.758Z,81.58
2022-11-11T18:38:56.352Z,81.38
2022-11-11T18:41:42.740Z,81.55
2022-11-11T18:44:28.600Z,81.22
2022-11-11T18:47:15.172Z,81.34
2022-11-11T18:50:01.081Z,81.37
2022-11-11T18:52:47.442Z,80.92
2022-11-11T18:55:33.926Z,80.77
2022-11-11T18:58:19.927Z,80.73
2022-11-11T19:01:12.414Z,80.31
2022-11-11T19:04:04.476Z,80.76
2022-11-11T19:06:50.831Z,80.65
2022-11-11T19:09:37.089Z,80.58
2022-11-11T19:12:22.917Z,80.81
2022-11-11T19:15:09.799Z,80.71
2022-11-11T19:17:55.686Z,81.03
2022-11-11T19:20:42.044Z,80.72
2022-11-11T19:23:30.242Z,81.18
2022-11-11T19:26:17.554Z,80.85
2022-11-11T19:29:06.022Z,81.29
2022-11-11T19:31:52.318Z,81.53
2022-11-11T19:34:38.545Z,81.25
2022-11-11T19:37:24.574Z,81.36
2022-11-11T19:40:11.121Z,81.80
2022-11-11T19:42:57.495Z,81.79
2022-11-11T19:45:44.224Z,81.51
2022-11-11T19:48:30.562Z,81.76
2022-11-11T19:51:19.487Z,81.88
2022-11-11T19:54:05.628Z,82.04
2022-11-11T19:56:51.622Z,81.84
2022-11-11T19:59:37.634Z,81.94
2022-11-11T20:02:23.793Z,81.94
2022-11-11T20:05:10.247Z,82.32
2022-11-11T20:07:57.739Z,82.59
2022-11-11T20:10:46.268Z,82.69
2022-11-11T20:13:33.991Z,83.04
2022-11-11T20:16:22.459Z,82.99
2022-11-11T20:19:10.797Z,82.76
2022-11-11T20:21:57.109Z,83.03
2022-11-11T20:24:43.175Z,82.81
2022-11-11T20:27:29.517Z,82.45
2022-11-11T20:30:15.419Z,82.77
2022-11-11T20:33:01.523Z,82.95
2022-11-11T20:35:47.742Z,83.18
2022-11-11T20:38:34.251Z,83.11
2022-11-11T20:41:20.617Z,83.24
2022-11-11T20:44:06.700Z,83.48
2022-11-11T20:46:52.872Z,83.58
2022-11-11T20:49:39.367Z,83.41
2022-11-11T20:52:25.763Z,83.74
2022-11-11T20:55:12.070Z,83.75
2022-11-11T20:57:58.010Z,83.63
2022-11-11T21:00:44.239Z,83.66
2022-11-11T21:03:31.959Z,83.84
2022-11-11T21:06:18.981Z,83.87
2022-11-11T21:09:07.870Z,83.81
2022-11-11T21:11:53.939Z,83.67
2022-11-11T21:14:40.253Z,83.65
2022-11-11T21:17:26.475Z,83.73
2022-11-11T21:20:12.250Z,83.58
2022-11-11T21:22:58.666Z,83.61
2022-11-11T21:25:44.896Z,83.68
2022-11-11T21:28:38.387Z,83.45
2022-11-11T21:31:29.159Z,83.71
2022-11-11T21:34:16.217Z,83.42
2022-11-11T21:37:02.148Z,83.45
2022-11-11T21:39:48.442Z,83.51
2022-11-11T21:42:34.251Z,83.27
2022-11-11T21:45:20.579Z,83.34
2022-11-11T21:48:06.826Z,83.37
2022-11-11T21:50:52.900Z,83.67
2022-11-11T21:53:41.653Z,83.58
2022-11-11T21:56:29.699Z,83.27
2022-11-11T21:59:15.595Z,83.71
2022-11-11T22:02:01.888Z,83.66
2022-11-11T22:04:48.016Z,83.88
2022-11-11T22:07:34.464Z,83.98
2022-11-11T22:10:21.156Z,84.12
2022-11-11T22:13:07.236Z,84.28
2022-11-11T22:16:05.026Z,84.29
2022-11-11T22:19:02.635Z,84.76
2022-11-11T22:21:50.000Z,84.15
2022-11-11T22:24:36.027Z,84.25
2022-11-11T22:27:22.082Z,84.05
2022-11-11T22:30:08.954Z,84.14
2022-11-11T22:32:54.978Z,84.36
2022-11-11T22:35:41.276Z,84.29
2022-11-11T22:38:28.077Z,84.41
2022-11-11T22:41:19.015Z,84.06
2022-11-11T22:44:05.131Z,84.55
2022-11-11T22:46:51.435Z,84.59
2022-11-11T22:49:37.319Z,84.55
2022-11-11T22:52:23.569Z,84.34
2022-11-11T22:55:09.687Z,84.35
2022-11-11T22:57:55.929Z,84.97
2022-11-11T23:00:42.002Z,84.83
2022-11-11T23:03:27.790Z,84.93
2022-11-11T23:06:19.399Z,85.13
2022-11-11T23:09:06.112Z,84.94
2022-11-11T23:11:52.704Z,84.82
2022-11-11T23:14:39.320Z,85.12
2022-11-11T23:17:25.428Z,85.45
2022-11-11T23:20:12.747Z,85.04
2022-11-11T23:22:58.892Z,85.15
2022-11-11T23:25:44.931Z,85.57
2022-11-11T23:28:31.181Z,85.65
2022-11-11T23:31:28.825Z,85.29
2022-11-11T23:34:14.738Z,86.05
2022-11-11T23:37:06.559Z,85.72
2022-11-11T23:39:53.764Z,85.75
2022-11-11T23:42:40.042Z,85.97
2022-11-11T23:45:26.020Z,86.41
2022-11-11T23:48:12.321Z,86.76
2022-11-11T23:50:58.374Z,87.00
2022-11-11T23:53:45.032Z,86.99
2022-11-11T23:56:31.629Z,86.79
2022-11-11T23:59:18.182Z,86.70
